sensor_id;sensor_type;location;lat;lon;timestamp;pressure;altitude;pressure_sealevel;temperature;humidity
9740;BME280;4909;42.680;26.324;2024-01-11T00:02:14;99604.19;;;-0.23;53.25
9740;BME280;4909;42.680;26.324;2024-01-11T00:04:43;99691.16;;;0.38;52.58
9740;BME280;4909;42.680;26.324;2024-01-11T00:07:10;99686.09;;;0.52;50.86
9740;BME280;4909;42.680;26.324;2024-01-11T00:09:39;99635.13;;;0.15;50.69
9740;BME280;4909;42.680;26.324;2024-01-11T00:12:06;99691.91;;;0.31;52.00
9740;BME280;4909;42.680;26.324;2024-01-11T00:14:34;99679.22;;;0.60;50.48
9740;BME280;4909;42.680;26.324;2024-01-11T00:17:01;99688.00;;;0.68;50.86
9740;BME280;4909;42.680;26.324;2024-01-11T00:19:28;99662.47;;;0.41;51.35
9740;BME280;4909;42.680;26.324;2024-01-11T00:21:56;99679.97;;;0.50;52.78
9740;BME280;4909;42.680;26.324;2024-01-11T00:24:23;99545.81;;;-0.32;51.79
9740;BME280;4909;42.680;26.324;2024-01-11T00:26:50;99671.75;;;0.21;52.51
9740;BME280;4909;42.680;26.324;2024-01-11T00:29:17;99610.56;;;-0.03;53.41
9740;BME280;4909;42.680;26.324;2024-01-11T00:31:44;99671.03;;;0.31;53.73
9740;BME280;4909;42.680;26.324;2024-01-11T00:34:11;99606.81;;;-0.21;54.52
9740;BME280;4909;42.680;26.324;2024-01-11T00:36:38;99618.31;;;-0.07;53.16
9740;BME280;4909;42.680;26.324;2024-01-11T00:39:07;99618.47;;;0.05;51.79
9740;BME280;4909;42.680;26.324;2024-01-11T00:41:34;99638.97;;;0.42;50.67
9740;BME280;4909;42.680;26.324;2024-01-11T00:44:01;99668.53;;;0.40;52.47
9740;BME280;4909;42.680;26.324;2024-01-11T00:46:28;99578.25;;;-0.12;52.85
9740;BME280;4909;42.680;26.324;2024-01-11T00:48:55;99630.69;;;0.05;52.13
9740;BME280;4909;42.680;26.324;2024-01-11T00:51:22;99588.78;;;-0.05;52.48
9740;BME280;4909;42.680;26.324;2024-01-11T00:53:49;99665.28;;;0.58;52.61
9740;BME280;4909;42.680;26.324;2024-01-11T00:56:18;99595.22;;;0.23;51.54
9740;BME280;4909;42.680;26.324;2024-01-11T00:58:45;99663.66;;;0.69;51.79
9740;BME280;4909;42.680;26.324;2024-01-11T01:01:13;99614.53;;;0.39;49.66
9740;BME280;4909;42.680;26.324;2024-01-11T01:03:40;99666.38;;;0.76;49.66
9740;BME280;4909;42.680;26.324;2024-01-11T01:06:07;99665.84;;;0.34;52.72
9740;BME280;4909;42.680;26.324;2024-01-11T01:08:34;99625.91;;;0.41;52.11
9740;BME280;4909;42.680;26.324;2024-01-11T01:11:01;99666.25;;;0.69;49.35
9740;BME280;4909;42.680;26.324;2024-01-11T01:13:29;99569.13;;;0.23;49.09
9740;BME280;4909;42.680;26.324;2024-01-11T01:15:56;99624.19;;;0.43;48.59
9740;BME280;4909;42.680;26.324;2024-01-11T01:18:24;99648.94;;;0.77;48.10
9740;BME280;4909;42.680;26.324;2024-01-11T01:20:51;99630.59;;;0.74;48.86
9740;BME280;4909;42.680;26.324;2024-01-11T01:23:18;99592.94;;;0.54;49.02
9740;BME280;4909;42.680;26.324;2024-01-11T01:25:44;99583.50;;;0.68;47.36
9740;BME280;4909;42.680;26.324;2024-01-11T01:28:11;99627.31;;;0.90;48.74
9740;BME280;4909;42.680;26.324;2024-01-11T01:30:40;99567.72;;;0.56;48.18
9740;BME280;4909;42.680;26.324;2024-01-11T01:33:07;99618.50;;;0.80;49.30
9740;BME280;4909;42.680;26.324;2024-01-11T01:35:34;99614.06;;;0.75;50.22
9740;BME280;4909;42.680;26.324;2024-01-11T01:38:01;99549.47;;;0.60;48.41
9740;BME280;4909;42.680;26.324;2024-01-11T01:40:30;99562.72;;;0.78;48.22
9740;BME280;4909;42.680;26.324;2024-01-11T01:43:00;99548.75;;;0.72;48.83
9740;BME280;4909;42.680;26.324;2024-01-11T01:45:27;99598.66;;;1.01;47.95
9740;BME280;4909;42.680;26.324;2024-01-11T01:47:55;99592.69;;;1.18;46.37
9740;BME280;4909;42.680;26.324;2024-01-11T01:50:22;99535.94;;;1.05;45.63
9740;BME280;4909;42.680;26.324;2024-01-11T01:52:50;99563.00;;;1.09;47.24
9740;BME280;4909;42.680;26.324;2024-01-11T01:55:18;99584.91;;;1.27;44.70
9740;BME280;4909;42.680;26.324;2024-01-11T01:57:47;99533.47;;;1.23;43.96
9740;BME280;4909;42.680;26.324;2024-01-11T02:00:15;99565.00;;;1.43;43.38
9740;BME280;4909;42.680;26.324;2024-01-11T02:02:44;99519.63;;;1.43;43.77
9740;BME280;4909;42.680;26.324;2024-01-11T02:05:14;99509.09;;;1.32;43.91
9740;BME280;4909;42.680;26.324;2024-01-11T02:07:44;99540.63;;;1.49;43.68
9740;BME280;4909;42.680;26.324;2024-01-11T02:10:11;99497.78;;;1.30;44.24
9740;BME280;4909;42.680;26.324;2024-01-11T02:12:39;99552.81;;;1.48;44.79
9740;BME280;4909;42.680;26.324;2024-01-11T02:15:08;99572.94;;;1.61;43.63
9740;BME280;4909;42.680;26.324;2024-01-11T02:17:36;99481.03;;;1.04;45.26
9740;BME280;4909;42.680;26.324;2024-01-11T02:20:03;99568.53;;;1.51;46.31
9740;BME280;4909;42.680;26.324;2024-01-11T02:22:35;99543.97;;;1.33;46.01
9740;BME280;4909;42.680;26.324;2024-01-11T02:25:04;99518.66;;;1.21;46.29
9740;BME280;4909;42.680;26.324;2024-01-11T02:27:44;99571.13;;;1.45;47.73
9740;BME280;4909;42.680;26.324;2024-01-11T02:30:12;99574.59;;;1.47;47.23
9740;BME280;4909;42.680;26.324;2024-01-11T02:32:39;99539.22;;;0.77;49.41
9740;BME280;4909;42.680;26.324;2024-01-11T02:35:07;99576.19;;;1.27;49.32
9740;BME280;4909;42.680;26.324;2024-01-11T02:37:35;99566.50;;;1.12;50.47
9740;BME280;4909;42.680;26.324;2024-01-11T02:40:05;99498.91;;;0.54;52.10
9740;BME280;4909;42.680;26.324;2024-01-11T02:42:33;99567.97;;;0.80;53.81
9740;BME280;4909;42.680;26.324;2024-01-11T02:45:00;99563.78;;;1.02;52.07
9740;BME280;4909;42.680;26.324;2024-01-11T02:47:27;99563.16;;;1.33;51.74
9740;BME280;4909;42.680;26.324;2024-01-11T02:49:53;99485.13;;;0.70;52.75
9740;BME280;4909;42.680;26.324;2024-01-11T02:52:20;99572.00;;;1.49;51.79
9740;BME280;4909;42.680;26.324;2024-01-11T02:54:47;99528.06;;;1.01;51.34
9740;BME280;4909;42.680;26.324;2024-01-11T02:57:15;99536.88;;;1.16;51.28
9740;BME280;4909;42.680;26.324;2024-01-11T02:59:43;99536.56;;;0.75;50.69
9740;BME280;4909;42.680;26.324;2024-01-11T03:02:10;99553.31;;;0.96;49.83
9740;BME280;4909;42.680;26.324;2024-01-11T03:04:37;99504.22;;;0.61;48.50
9740;BME280;4909;42.680;26.324;2024-01-11T03:07:04;99513.06;;;0.77;47.21
9740;BME280;4909;42.680;26.324;2024-01-11T03:09:31;99505.28;;;0.87;48.70
9740;BME280;4909;42.680;26.324;2024-01-11T03:11:59;99523.72;;;1.03;49.10
9740;BME280;4909;42.680;26.324;2024-01-11T03:14:28;99479.00;;;0.65;50.25
9740;BME280;4909;42.680;26.324;2024-01-11T03:16:55;99511.56;;;1.06;48.99
9740;BME280;4909;42.680;26.324;2024-01-11T03:19:22;99515.19;;;1.25;50.50
9740;BME280;4909;42.680;26.324;2024-01-11T03:21:49;99532.56;;;1.18;51.31
9740;BME280;4909;42.680;26.324;2024-01-11T03:24:16;99440.75;;;0.71;50.54
9740;BME280;4909;42.680;26.324;2024-01-11T03:26:42;99448.59;;;0.74;51.12
9740;BME280;4909;42.680;26.324;2024-01-11T03:29:09;99481.97;;;1.13;51.45
9740;BME280;4909;42.680;26.324;2024-01-11T03:31:38;99521.22;;;1.18;52.23
9740;BME280;4909;42.680;26.324;2024-01-11T03:34:07;99443.28;;;0.64;52.37
9740;BME280;4909;42.680;26.324;2024-01-11T03:36:34;99518.53;;;1.06;53.13
9740;BME280;4909;42.680;26.324;2024-01-11T03:39:01;99470.34;;;0.72;54.15
9740;BME280;4909;42.680;26.324;2024-01-11T03:41:28;99496.66;;;0.92;54.16
9740;BME280;4909;42.680;26.324;2024-01-11T03:43:55;99511.56;;;1.05;55.28
9740;BME280;4909;42.680;26.324;2024-01-11T03:46:22;99513.56;;;1.48;54.39
9740;BME280;4909;42.680;26.324;2024-01-11T03:48:50;99432.09;;;0.80;55.23
9740;BME280;4909;42.680;26.324;2024-01-11T03:51:17;99488.66;;;0.78;57.04
9740;BME280;4909;42.680;26.324;2024-01-11T03:53:44;99436.28;;;0.57;56.91
9740;BME280;4909;42.680;26.324;2024-01-11T03:56:11;99500.22;;;1.04;56.66
9740;BME280;4909;42.680;26.324;2024-01-11T03:58:38;99458.09;;;0.68;56.44
9740;BME280;4909;42.680;26.324;2024-01-11T04:01:07;99467.16;;;1.12;55.57
9740;BME280;4909;42.680;26.324;2024-01-11T04:03:35;99508.31;;;1.44;54.14
9740;BME280;4909;42.680;26.324;2024-01-11T04:06:04;99507.47;;;1.45;52.64
9740;BME280;4909;42.680;26.324;2024-01-11T04:08:31;99479.41;;;1.22;51.80
9740;BME280;4909;42.680;26.324;2024-01-11T04:11:01;99496.03;;;1.30;52.30
9740;BME280;4909;42.680;26.324;2024-01-11T04:13:28;99436.41;;;0.75;53.20
9740;BME280;4909;42.680;26.324;2024-01-11T04:15:56;99476.75;;;1.16;53.62
9740;BME280;4909;42.680;26.324;2024-01-11T04:18:23;99494.22;;;1.20;54.88
9740;BME280;4909;42.680;26.324;2024-01-11T04:20:50;99404.94;;;0.57;55.28
9740;BME280;4909;42.680;26.324;2024-01-11T04:23:18;99494.97;;;1.03;56.51
9740;BME280;4909;42.680;26.324;2024-01-11T04:25:45;99487.09;;;0.97;56.77
9740;BME280;4909;42.680;26.324;2024-01-11T04:28:12;99462.56;;;0.79;56.76
9740;BME280;4909;42.680;26.324;2024-01-11T04:30:39;99453.72;;;0.61;57.27
9740;BME280;4909;42.680;26.324;2024-01-11T04:33:06;99465.19;;;0.81;58.33
9740;BME280;4909;42.680;26.324;2024-01-11T04:35:33;99418.09;;;0.72;54.45
9740;BME280;4909;42.680;26.324;2024-01-11T04:38:00;99480.28;;;1.23;54.48
9740;BME280;4909;42.680;26.324;2024-01-11T04:40:28;99466.22;;;1.01;54.13
9740;BME280;4909;42.680;26.324;2024-01-11T04:42:55;99461.06;;;1.15;54.67
9740;BME280;4909;42.680;26.324;2024-01-11T04:45:22;99429.44;;;0.72;55.96
9740;BME280;4909;42.680;26.324;2024-01-11T04:47:50;99475.78;;;1.02;56.09
9740;BME280;4909;42.680;26.324;2024-01-11T04:50:17;99490.53;;;0.90;57.38
9740;BME280;4909;42.680;26.324;2024-01-11T04:52:46;99482.69;;;0.93;58.25
9740;BME280;4909;42.680;26.324;2024-01-11T04:55:13;99474.97;;;1.09;57.32
9740;BME280;4909;42.680;26.324;2024-01-11T04:57:41;99451.94;;;0.57;59.96
9740;BME280;4909;42.680;26.324;2024-01-11T05:00:09;99388.72;;;-0.04;60.86
9740;BME280;4909;42.680;26.324;2024-01-11T05:02:36;99361.63;;;-0.20;61.75
9740;BME280;4909;42.680;26.324;2024-01-11T05:05:03;99383.50;;;-0.06;61.17
9740;BME280;4909;42.680;26.324;2024-01-11T05:07:30;99422.00;;;0.17;61.46
9740;BME280;4909;42.680;26.324;2024-01-11T05:09:57;99468.41;;;0.48;61.40
9740;BME280;4909;42.680;26.324;2024-01-11T05:12:24;99464.13;;;0.59;61.27
9740;BME280;4909;42.680;26.324;2024-01-11T05:14:53;99438.75;;;0.38;61.51
9740;BME280;4909;42.680;26.324;2024-01-11T05:17:20;99446.63;;;0.49;61.30
9740;BME280;4909;42.680;26.324;2024-01-11T05:19:47;99422.22;;;0.44;60.19
9740;BME280;4909;42.680;26.324;2024-01-11T05:22:15;99389.88;;;0.27;57.81
9740;BME280;4909;42.680;26.324;2024-01-11T05:24:42;99320.75;;;-0.18;55.82
9740;BME280;4909;42.680;26.324;2024-01-11T05:27:09;99372.16;;;-0.09;56.24
9740;BME280;4909;42.680;26.324;2024-01-11T05:29:36;99387.03;;;-0.01;56.26
9740;BME280;4909;42.680;26.324;2024-01-11T05:32:05;99474.56;;;0.53;56.44
9740;BME280;4909;42.680;26.324;2024-01-11T05:34:33;99473.75;;;0.65;57.28
9740;BME280;4909;42.680;26.324;2024-01-11T05:37:00;99446.66;;;0.48;57.24
9740;BME280;4909;42.680;26.324;2024-01-11T05:39:27;99371.34;;;-0.05;58.03
9740;BME280;4909;42.680;26.324;2024-01-11T05:41:54;99476.47;;;0.75;57.30
9740;BME280;4909;42.680;26.324;2024-01-11T05:44:21;99424.75;;;0.33;57.51
9740;BME280;4909;42.680;26.324;2024-01-11T05:46:48;99471.19;;;0.66;57.36
9740;BME280;4909;42.680;26.324;2024-01-11T05:49:16;99320.38;;;-0.59;59.24
9740;BME280;4909;42.680;26.324;2024-01-11T05:51:43;99469.16;;;0.35;59.24
9740;BME280;4909;42.680;26.324;2024-01-11T05:54:10;99470.94;;;0.37;60.37
9740;BME280;4909;42.680;26.324;2024-01-11T05:56:37;99466.44;;;0.24;60.56
9740;BME280;4909;42.680;26.324;2024-01-11T05:59:04;99414.13;;;0.12;59.79
9740;BME280;4909;42.680;26.324;2024-01-11T06:01:31;99332.03;;;-0.22;58.56
9740;BME280;4909;42.680;26.324;2024-01-11T06:03:58;99437.97;;;0.55;58.03
9740;BME280;4909;42.680;26.324;2024-01-11T06:06:27;99459.88;;;0.69;57.58
9740;BME280;4909;42.680;26.324;2024-01-11T06:08:54;99456.41;;;0.73;58.15
9740;BME280;4909;42.680;26.324;2024-01-11T06:11:21;99423.97;;;0.43;59.28
9740;BME280;4909;42.680;26.324;2024-01-11T06:13:48;99292.72;;;-0.45;59.11
9740;BME280;4909;42.680;26.324;2024-01-11T06:16:15;99408.25;;;0.37;59.96
9740;BME280;4909;42.680;26.324;2024-01-11T06:18:42;99431.00;;;0.54;59.58
9740;BME280;4909;42.680;26.324;2024-01-11T06:21:10;99396.03;;;0.32;59.65
9740;BME280;4909;42.680;26.324;2024-01-11T06:23:38;99425.91;;;0.70;58.65
9740;BME280;4909;42.680;26.324;2024-01-11T06:26:05;99431.16;;;0.72;59.52
9740;BME280;4909;42.680;26.324;2024-01-11T06:28:32;99374.47;;;0.60;58.46
9740;BME280;4909;42.680;26.324;2024-01-11T06:30:59;99440.19;;;1.19;57.55
9740;BME280;4909;42.680;26.324;2024-01-11T06:33:26;99416.72;;;1.33;56.12
9740;BME280;4909;42.680;26.324;2024-01-11T06:35:54;99432.59;;;1.77;55.52
9740;BME280;4909;42.680;26.324;2024-01-11T06:38:21;99424.78;;;1.94;54.34
9740;BME280;4909;42.680;26.324;2024-01-11T06:40:49;99429.22;;;2.52;52.09
9740;BME280;4909;42.680;26.324;2024-01-11T06:43:16;99381.09;;;3.02;48.15
9740;BME280;4909;42.680;26.324;2024-01-11T06:45:43;99342.63;;;3.13;45.83
9740;BME280;4909;42.680;26.324;2024-01-11T06:48:10;99390.34;;;3.96;44.74
9740;BME280;4909;42.680;26.324;2024-01-11T06:50:37;99397.53;;;4.80;42.14
9740;BME280;4909;42.680;26.324;2024-01-11T06:53:04;99414.81;;;5.85;39.92
9740;BME280;4909;42.680;26.324;2024-01-11T06:55:31;99391.59;;;7.60;36.87
9740;BME280;4909;42.680;26.324;2024-01-11T06:58:00;99409.09;;;9.16;33.32
9740;BME280;4909;42.680;26.324;2024-01-11T07:00:27;99331.91;;;9.30;31.71
9740;BME280;4909;42.680;26.324;2024-01-11T07:02:54;99407.31;;;10.67;29.51
9740;BME280;4909;42.680;26.324;2024-01-11T07:05:21;99386.16;;;10.90;27.70
9740;BME280;4909;42.680;26.324;2024-01-11T07:07:48;99376.22;;;10.44;27.18
9740;BME280;4909;42.680;26.324;2024-01-11T07:10:15;99289.19;;;8.81;30.40
9740;BME280;4909;42.680;26.324;2024-01-11T07:12:42;99403.00;;;8.81;32.92
9740;BME280;4909;42.680;26.324;2024-01-11T07:15:12;99304.03;;;7.38;34.27
9740;BME280;4909;42.680;26.324;2024-01-11T07:17:40;99366.03;;;7.21;35.57
9740;BME280;4909;42.680;26.324;2024-01-11T07:20:08;99406.19;;;7.36;36.35
9740;BME280;4909;42.680;26.324;2024-01-11T07:22:35;99373.78;;;6.81;36.26
9740;BME280;4909;42.680;26.324;2024-01-11T07:25:03;99335.84;;;5.79;38.12
9740;BME280;4909;42.680;26.324;2024-01-11T07:27:30;99319.25;;;6.34;37.22
9740;BME280;4909;42.680;26.324;2024-01-11T07:29:57;99216.56;;;7.14;35.65
9740;BME280;4909;42.680;26.324;2024-01-11T07:32:26;99407.16;;;9.55;32.68
9740;BME280;4909;42.680;26.324;2024-01-11T07:34:53;99390.28;;;10.46;30.64
9740;BME280;4909;42.680;26.324;2024-01-11T07:37:20;99316.19;;;10.91;29.25
9740;BME280;4909;42.680;26.324;2024-01-11T07:39:47;99322.66;;;11.09;28.47
9740;BME280;4909;42.680;26.324;2024-01-11T07:42:15;99366.22;;;11.53;27.90
9740;BME280;4909;42.680;26.324;2024-01-11T07:44:42;99371.78;;;10.97;27.79
9740;BME280;4909;42.680;26.324;2024-01-11T07:47:09;99343.41;;;9.60;29.64
9740;BME280;4909;42.680;26.324;2024-01-11T07:49:38;99382.53;;;9.52;30.17
9740;BME280;4909;42.680;26.324;2024-01-11T07:52:05;99327.41;;;9.01;30.85
9740;BME280;4909;42.680;26.324;2024-01-11T07:54:32;99381.00;;;8.77;31.60
9740;BME280;4909;42.680;26.324;2024-01-11T07:56:59;99360.06;;;9.34;31.28
9740;BME280;4909;42.680;26.324;2024-01-11T07:59:25;99317.88;;;9.87;30.04
9740;BME280;4909;42.680;26.324;2024-01-11T08:01:52;99331.59;;;10.81;28.73
9740;BME280;4909;42.680;26.324;2024-01-11T08:04:19;99354.88;;;11.72;27.80
9740;BME280;4909;42.680;26.324;2024-01-11T08:06:48;99380.53;;;12.63;27.18
9740;BME280;4909;42.680;26.324;2024-01-11T08:09:15;99214.16;;;11.66;26.80
9740;BME280;4909;42.680;26.324;2024-01-11T08:11:43;99376.59;;;12.94;26.68
9740;BME280;4909;42.680;26.324;2024-01-11T08:14:11;99182.88;;;11.51;26.54
9740;BME280;4909;42.680;26.324;2024-01-11T08:16:39;99251.75;;;11.34;27.00
9740;BME280;4909;42.680;26.324;2024-01-11T08:19:06;99325.75;;;10.97;27.38
9740;BME280;4909;42.680;26.324;2024-01-11T08:21:35;99339.94;;;10.17;29.10
9740;BME280;4909;42.680;26.324;2024-01-11T08:24:04;99357.06;;;9.46;30.54
9740;BME280;4909;42.680;26.324;2024-01-11T08:26:32;99373.94;;;9.11;31.12
9740;BME280;4909;42.680;26.324;2024-01-11T08:28:59;99373.00;;;8.80;32.22
9740;BME280;4909;42.680;26.324;2024-01-11T08:31:26;99260.00;;;8.14;31.84
9740;BME280;4909;42.680;26.324;2024-01-11T08:33:53;99180.38;;;7.93;32.07
9740;BME280;4909;42.680;26.324;2024-01-11T08:36:20;99292.59;;;9.75;30.62
9740;BME280;4909;42.680;26.324;2024-01-11T08:38:47;99240.50;;;10.79;29.06
9740;BME280;4909;42.680;26.324;2024-01-11T08:41:16;99264.84;;;12.29;27.86
9740;BME280;4909;42.680;26.324;2024-01-11T08:43:43;99245.53;;;12.66;26.68
9740;BME280;4909;42.680;26.324;2024-01-11T08:46:10;99217.28;;;12.82;26.15
9740;BME280;4909;42.680;26.324;2024-01-11T08:48:38;99333.84;;;13.76;25.75
9740;BME280;4909;42.680;26.324;2024-01-11T08:51:05;99335.13;;;13.68;26.52
9740;BME280;4909;42.680;26.324;2024-01-11T08:53:32;99225.81;;;12.90;25.91
9740;BME280;4909;42.680;26.324;2024-01-11T08:55:59;99221.88;;;12.78;26.24
9740;BME280;4909;42.680;26.324;2024-01-11T08:58:28;99299.38;;;13.90;25.47
9740;BME280;4909;42.680;26.324;2024-01-11T09:00:55;99273.47;;;14.11;25.04
9740;BME280;4909;42.680;26.324;2024-01-11T09:03:22;99249.09;;;14.00;24.54
9740;BME280;4909;42.680;26.324;2024-01-11T09:05:50;99260.50;;;13.47;24.66
9740;BME280;4909;42.680;26.324;2024-01-11T09:08:17;99252.69;;;13.24;26.12
9740;BME280;4909;42.680;26.324;2024-01-11T09:10:44;99147.91;;;12.64;25.97
9740;BME280;4909;42.680;26.324;2024-01-11T09:13:11;99153.56;;;13.16;25.39
9740;BME280;4909;42.680;26.324;2024-01-11T09:15:40;99258.44;;;13.15;25.66
9740;BME280;4909;42.680;26.324;2024-01-11T09:18:07;99226.03;;;13.04;26.19
9740;BME280;4909;42.680;26.324;2024-01-11T09:20:35;99155.69;;;12.69;25.65
9740;BME280;4909;42.680;26.324;2024-01-11T09:23:03;99265.34;;;13.58;25.08
9740;BME280;4909;42.680;26.324;2024-01-11T09:25:30;99128.41;;;13.22;25.01
9740;BME280;4909;42.680;26.324;2024-01-11T09:27:57;99082.41;;;12.60;25.19
9740;BME280;4909;42.680;26.324;2024-01-11T09:30:24;99116.25;;;11.98;25.61
9740;BME280;4909;42.680;26.324;2024-01-11T09:32:53;99115.94;;;10.73;27.37
9740;BME280;4909;42.680;26.324;2024-01-11T09:35:21;99057.09;;;9.37;29.64
9740;BME280;4909;42.680;26.324;2024-01-11T09:37:48;99063.03;;;9.70;29.52
9740;BME280;4909;42.680;26.324;2024-01-11T09:40:17;99076.72;;;10.33;29.06
9740;BME280;4909;42.680;26.324;2024-01-11T09:42:44;99195.19;;;11.30;28.71
9740;BME280;4909;42.680;26.324;2024-01-11T09:45:13;99068.88;;;10.30;28.53
9740;BME280;4909;42.680;26.324;2024-01-11T09:47:41;99150.66;;;10.67;29.27
9740;BME280;4909;42.680;26.324;2024-01-11T09:50:11;99056.00;;;9.44;29.65
9740;BME280;4909;42.680;26.324;2024-01-11T09:52:45;99164.53;;;9.73;30.80
9740;BME280;4909;42.680;26.324;2024-01-11T09:55:13;99189.44;;;9.40;31.90
9740;BME280;4909;42.680;26.324;2024-01-11T09:57:43;99146.47;;;9.30;32.40
9740;BME280;4909;42.680;26.324;2024-01-11T10:00:13;99040.81;;;8.05;32.44
9740;BME280;4909;42.680;26.324;2024-01-11T10:02:40;99048.00;;;7.34;32.64
9740;BME280;4909;42.680;26.324;2024-01-11T10:05:08;99036.16;;;6.78;32.29
9740;BME280;4909;42.680;26.324;2024-01-11T10:07:37;98972.91;;;6.38;32.53
9740;BME280;4909;42.680;26.324;2024-01-11T10:10:05;99122.72;;;7.37;34.43
9740;BME280;4909;42.680;26.324;2024-01-11T10:12:34;98972.56;;;6.90;35.15
9740;BME280;4909;42.680;26.324;2024-01-11T10:15:05;99156.75;;;7.85;33.33
9740;BME280;4909;42.680;26.324;2024-01-11T10:17:35;99104.31;;;7.34;34.31
9740;BME280;4909;42.680;26.324;2024-01-11T10:20:03;99070.31;;;6.84;33.57
9740;BME280;4909;42.680;26.324;2024-01-11T10:22:30;99054.13;;;6.61;34.48
9740;BME280;4909;42.680;26.324;2024-01-11T10:25:09;99031.19;;;6.64;35.62
9740;BME280;4909;42.680;26.324;2024-01-11T10:27:38;98958.69;;;6.05;35.68
9740;BME280;4909;42.680;26.324;2024-01-11T10:30:08;99044.09;;;6.38;36.44
9740;BME280;4909;42.680;26.324;2024-01-11T10:32:35;98946.16;;;5.72;36.23
9740;BME280;4909;42.680;26.324;2024-01-11T10:35:03;99156.94;;;7.05;35.29
9740;BME280;4909;42.680;26.324;2024-01-11T10:37:31;99002.69;;;6.41;34.43
9740;BME280;4909;42.680;26.324;2024-01-11T10:40:03;99039.81;;;6.72;33.92
9740;BME280;4909;42.680;26.324;2024-01-11T10:42:36;98973.72;;;6.40;33.22
9740;BME280;4909;42.680;26.324;2024-01-11T10:45:10;98924.28;;;6.11;34.19
9740;BME280;4909;42.680;26.324;2024-01-11T10:47:47;98992.63;;;6.59;36.03
9740;BME280;4909;42.680;26.324;2024-01-11T10:50:16;99122.28;;;7.56;36.21
9740;BME280;4909;42.680;26.324;2024-01-11T10:53:12;99011.94;;;6.21;36.50
9740;BME280;4909;42.680;26.324;2024-01-11T10:55:46;99010.47;;;6.06;38.58
9740;BME280;4909;42.680;26.324;2024-01-11T10:58:15;99054.72;;;6.33;37.70
9740;BME280;4909;42.680;26.324;2024-01-11T11:00:44;99112.06;;;7.05;36.93
9740;BME280;4909;42.680;26.324;2024-01-11T11:03:12;98937.25;;;6.22;35.01
9740;BME280;4909;42.680;26.324;2024-01-11T11:05:41;98992.44;;;6.68;36.00
9740;BME280;4909;42.680;26.324;2024-01-11T11:08:10;99038.97;;;6.70;36.09
9740;BME280;4909;42.680;26.324;2024-01-11T11:10:39;98908.97;;;5.90;35.43
9740;BME280;4909;42.680;26.324;2024-01-11T11:13:08;98993.75;;;6.08;36.41
9740;BME280;4909;42.680;26.324;2024-01-11T11:15:39;98828.69;;;5.23;38.63
9740;BME280;4909;42.680;26.324;2024-01-11T11:18:07;99032.88;;;6.28;39.60
9740;BME280;4909;42.680;26.324;2024-01-11T11:20:35;98908.69;;;5.59;40.19
9740;BME280;4909;42.680;26.324;2024-01-11T11:23:06;99072.00;;;6.48;39.47
9740;BME280;4909;42.680;26.324;2024-01-11T11:25:35;98985.28;;;5.93;39.87
9740;BME280;4909;42.680;26.324;2024-01-11T11:28:03;99020.59;;;5.81;39.93
9740;BME280;4909;42.680;26.324;2024-01-11T11:30:31;98944.88;;;5.48;40.04
9740;BME280;4909;42.680;26.324;2024-01-11T11:33:08;99033.97;;;6.17;39.86
9740;BME280;4909;42.680;26.324;2024-01-11T11:35:35;98989.50;;;6.01;39.31
9740;BME280;4909;42.680;26.324;2024-01-11T11:38:02;98929.19;;;5.89;39.43
9740;BME280;4909;42.680;26.324;2024-01-11T11:40:33;98963.03;;;6.07;39.35
9740;BME280;4909;42.680;26.324;2024-01-11T11:43:05;98909.88;;;5.89;40.14
9740;BME280;4909;42.680;26.324;2024-01-11T11:45:32;98892.59;;;5.73;40.91
9740;BME280;4909;42.680;26.324;2024-01-11T11:48:01;98963.63;;;6.20;41.48
9740;BME280;4909;42.680;26.324;2024-01-11T11:50:30;98853.22;;;5.66;41.91
9740;BME280;4909;42.680;26.324;2024-01-11T11:52:57;98923.94;;;6.26;42.40
9740;BME280;4909;42.680;26.324;2024-01-11T11:55:25;98941.31;;;6.36;42.11
9740;BME280;4909;42.680;26.324;2024-01-11T11:57:52;98922.59;;;6.08;42.76
9740;BME280;4909;42.680;26.324;2024-01-11T12:00:19;98939.78;;;6.26;43.57
9740;BME280;4909;42.680;26.324;2024-01-11T12:02:47;98855.03;;;5.64;43.67
9740;BME280;4909;42.680;26.324;2024-01-11T12:05:16;98850.63;;;5.23;44.56
9740;BME280;4909;42.680;26.324;2024-01-11T12:07:44;98827.75;;;5.27;44.37
9740;BME280;4909;42.680;26.324;2024-01-11T12:10:14;99006.00;;;6.51;44.05
9740;BME280;4909;42.680;26.324;2024-01-11T12:12:41;98934.25;;;5.52;43.92
9740;BME280;4909;42.680;26.324;2024-01-11T12:15:08;98813.34;;;5.02;44.61
9740;BME280;4909;42.680;26.324;2024-01-11T12:17:37;98904.00;;;5.75;44.67
9740;BME280;4909;42.680;26.324;2024-01-11T12:20:06;98997.41;;;6.43;43.36
9740;BME280;4909;42.680;26.324;2024-01-11T12:22:34;98897.38;;;5.97;42.82
9740;BME280;4909;42.680;26.324;2024-01-11T12:25:02;98806.66;;;5.70;42.60
9740;BME280;4909;42.680;26.324;2024-01-11T12:27:30;98763.09;;;5.55;42.74
9740;BME280;4909;42.680;26.324;2024-01-11T12:29:57;98793.31;;;5.76;42.41
9740;BME280;4909;42.680;26.324;2024-01-11T12:32:24;98836.69;;;6.01;42.75
9740;BME280;4909;42.680;26.324;2024-01-11T12:34:52;98791.34;;;5.87;42.19
9740;BME280;4909;42.680;26.324;2024-01-11T12:37:20;98966.63;;;6.80;41.21
9740;BME280;4909;42.680;26.324;2024-01-11T12:39:49;98813.59;;;5.73;41.78
9740;BME280;4909;42.680;26.324;2024-01-11T12:42:16;98861.91;;;5.72;41.29
9740;BME280;4909;42.680;26.324;2024-01-11T12:44:43;98770.75;;;5.28;42.22
9740;BME280;4909;42.680;26.324;2024-01-11T12:47:11;98877.72;;;6.11;42.55
9740;BME280;4909;42.680;26.324;2024-01-11T12:49:43;98717.94;;;5.34;41.23
9740;BME280;4909;42.680;26.324;2024-01-11T12:52:15;98866.94;;;6.22;40.69
9740;BME280;4909;42.680;26.324;2024-01-11T12:54:43;98722.13;;;5.42;39.84
9740;BME280;4909;42.680;26.324;2024-01-11T12:57:17;98748.97;;;5.59;39.40
9740;BME280;4909;42.680;26.324;2024-01-11T12:59:45;98736.81;;;5.54;39.40
9740;BME280;4909;42.680;26.324;2024-01-11T13:02:12;98933.56;;;6.66;38.58
9740;BME280;4909;42.680;26.324;2024-01-11T13:04:39;98879.78;;;6.37;38.47
9740;BME280;4909;42.680;26.324;2024-01-11T13:07:07;98783.44;;;5.87;37.13
9740;BME280;4909;42.680;26.324;2024-01-11T13:09:34;98835.88;;;6.35;36.45
9740;BME280;4909;42.680;26.324;2024-01-11T13:12:02;98736.56;;;5.64;36.46
9740;BME280;4909;42.680;26.324;2024-01-11T13:14:31;98786.78;;;5.95;36.13
9740;BME280;4909;42.680;26.324;2024-01-11T13:16:58;98815.34;;;6.14;36.36
9740;BME280;4909;42.680;26.324;2024-01-11T13:19:25;98892.41;;;6.59;37.17
9740;BME280;4909;42.680;26.324;2024-01-11T13:21:52;98900.25;;;6.63;36.12
9740;BME280;4909;42.680;26.324;2024-01-11T13:24:19;98793.75;;;5.98;35.84